Time;durP1;ratioP1;P1;durP2;ratioP2;P2;SDS_P1;SDS_P2;PMS_P1;PMS_P2;Temp;Humidity;BMP_temperature;BMP_pressure;BME280_temperature;BME280_humidity;BME280_pressure;Samples;Min_cycle;Max_cycle;Signal;HPM_P1;HPM_P2
2021/08/13 00:02:15;;;;;;;11.77;8.23;;;;;;;13.29;71.09;100168.91;531739;1090;116123;-60
2021/08/13 00:12:22;;;;;;;9.10;8.10;;;;;;;13.20;70.89;100169.52;532536;1089;116802;-60
2021/08/13 00:22:29;;;;;;;11.97;8.73;;;;;;;13.08;70.78;100158.83;532529;1089;116717;-60
2021/08/13 00:32:35;;;;;;;13.17;8.33;;;;;;;12.98;71.06;100155.96;532561;1088;117481;-60
2021/08/13 00:42:42;;;;;;;9.97;7.13;;;;;;;12.90;71.27;100160.88;532619;1088;116632;-60
2021/08/13 00:52:49;;;;;;;9.40;8.50;;;;;;;12.80;71.53;100159.78;531877;1089;117047;-60
2021/08/13 01:02:57;;;;;;;9.58;8.10;;;;;;;12.78;71.79;100161.67;532609;1088;116408;-60
2021/08/13 01:13:09;;;;;;;10.37;8.03;;;;;;;12.71;71.54;100159.45;532573;1089;118113;-60
2021/08/13 01:23:22;;;;;;;12.03;7.20;;;;;;;12.63;71.89;100152.95;531869;1088;116958;-60
2021/08/13 01:33:29;;;;;;;8.93;7.57;;;;;;;12.53;71.30;100150.07;532579;1088;116941;-61
2021/08/13 01:43:38;;;;;;;13.00;8.73;;;;;;;12.52;72.16;100149.20;531841;1088;116293;-61
2021/08/13 01:53:44;;;;;;;12.98;8.95;;;;;;;12.47;72.31;100144.27;532576;1089;115746;-59
2021/08/13 02:03:52;;;;;;;11.13;8.87;;;;;;;12.38;72.24;100159.77;532550;1089;117235;-60
2021/08/13 02:14:00;;;;;;;11.28;8.80;;;;;;;12.27;72.57;100156.02;531798;1089;117340;-60
2021/08/13 02:24:07;;;;;;;13.03;8.50;;;;;;;12.22;72.84;100166.01;532623;1088;116549;-60
2021/08/13 02:34:13;;;;;;;13.43;10.20;;;;;;;12.23;73.21;100165.06;532470;1089;116656;-61
2021/08/13 02:44:23;;;;;;;18.60;9.83;;;;;;;12.30;73.41;100162.89;531835;1089;118504;-61
2021/08/13 02:54:34;;;;;;;17.33;10.57;;;;;;;12.16;73.09;100158.47;532587;1088;116887;-60
2021/08/13 03:04:45;;;;;;;11.97;8.60;;;;;;;12.10;73.02;100164.13;531833;1089;178201;-60
2021/08/13 03:14:52;;;;;;;11.13;9.23;;;;;;;12.09;73.18;100162.44;532552;1088;117802;-60
2021/08/13 03:24:59;;;;;;;11.63;9.80;;;;;;;12.12;73.03;100160.48;532606;1089;116045;-60
2021/08/13 03:35:08;;;;;;;10.87;8.93;;;;;;;12.29;73.04;100158.57;531749;1089;116851;-60
2021/08/13 03:45:14;;;;;;;17.58;11.15;;;;;;;12.52;73.12;100151.84;532609;1089;116320;-60
2021/08/13 03:55:21;;;;;;;14.87;10.70;;;;;;;13.07;73.30;100159.78;532530;1089;117248;-60
2021/08/13 04:05:30;;;;;;;21.70;12.13;;;;;;;13.64;72.53;100165.73;531866;1088;116716;-61
2021/08/13 04:15:38;;;;;;;16.03;10.00;;;;;;;14.14;71.72;100152.63;532575;1088;116721;-60
2021/08/13 04:25:45;;;;;;;12.38;9.23;;;;;;;14.71;70.58;100160.09;531807;1088;116656;-60
2021/08/13 04:35:51;;;;;;;16.67;10.03;;;;;;;15.43;69.51;100158.40;532439;1089;117325;-60
2021/08/13 04:45:58;;;;;;;14.37;9.93;;;;;;;16.37;68.26;100163.56;532416;1089;118252;-60
2021/08/13 04:56:05;;;;;;;12.83;8.60;;;;;;;17.39;66.25;100172.22;531778;1089;116772;-61
2021/08/13 05:06:13;;;;;;;8.63;7.73;;;;;;;19.39;65.01;100175.31;517521;1088;117396;-59
2021/08/13 05:16:20;;;;;;;9.53;7.53;;;;;;;25.20;58.23;100164.45;532426;1088;117160;-66
2021/08/13 05:26:26;;;;;;;7.57;6.37;;;;;;;32.43;47.80;100160.45;531838;1088;116193;-61
2021/08/13 05:36:34;;;;;;;7.47;6.60;;;;;;;32.18;42.82;100166.00;520601;1088;116869;-61
2021/08/13 05:46:40;;;;;;;8.67;6.83;;;;;;;31.98;39.35;100172.48;531769;1088;117777;-60
2021/08/13 05:56:47;;;;;;;9.40;6.55;;;;;;;33.04;38.22;100175.91;532579;1089;118124;-61
2021/08/13 06:06:54;;;;;;;11.00;7.45;;;;;;;33.15;36.42;100161.50;532609;1088;117397;-62
2021/08/13 06:17:02;;;;;;;11.83;6.10;;;;;;;37.21;32.60;100154.08;531811;1089;117075;-61
2021/08/13 06:27:09;;;;;;;7.60;6.15;;;;;;;35.11;31.60;100163.88;532547;1088;116679;-65
2021/08/13 06:37:16;;;;;;;6.30;5.65;;;;;;;33.80;31.66;100164.35;532513;1089;117135;-63
2021/08/13 06:47:23;;;;;;;9.78;5.35;;;;;;;34.96;31.82;100160.88;531747;1088;116412;-63
2021/08/13 06:57:30;;;;;;;5.10;4.60;;;;;;;36.27;30.43;100167.95;523551;1088;115964;-66
2021/08/13 07:07:37;;;;;;;5.03;3.83;;;;;;;43.35;26.25;100159.48;531724;1090;117001;-65
2021/08/13 07:17:44;;;;;;;3.00;2.63;;;;;;;47.46;21.69;100158.20;532565;1089;116272;-65
2021/08/13 07:27:50;;;;;;;4.35;3.10;;;;;;;45.51;20.06;100158.63;532583;1088;115669;-66
2021/08/13 07:37:58;;;;;;;3.78;2.78;;;;;;;40.12;22.23;100147.02;531868;1088;118073;-72
2021/08/13 07:48:05;;;;;;;5.45;2.88;;;;;;;36.54;24.27;100146.09;532579;1089;117901;-74
2021/08/13 07:58:12;;;;;;;4.80;3.30;;;;;;;36.41;26.08;100157.41;532536;1088;116767;-63
2021/08/13 08:08:19;;;;;;;4.80;3.00;;;;;;;41.44;22.76;100161.14;531766;1089;117443;-63
2021/08/13 08:18:26;;;;;;;2.58;2.40;;;;;;;45.97;18.80;100148.16;532575;1089;115885;-63
2021/08/13 08:28:32;;;;;;;2.73;2.53;;;;;;;39.95;20.14;100152.05;531824;1089;117484;-68
2021/08/13 08:38:39;;;;;;;4.78;2.60;;;;;;;36.86;22.33;100158.16;532548;1088;117109;-61
2021/08/13 08:48:49;;;;;;;2.83;2.30;;;;;;;35.83;23.38;100158.66;532582;1089;116400;-70
2021/08/13 08:58:56;;;;;;;6.40;2.88;;;;;;;34.79;24.08;100153.49;531783;1090;117382;-69
2021/08/13 09:09:03;;;;;;;2.60;2.40;;;;;;;33.43;23.59;100160.00;532576;1088;116930;-71
2021/08/13 09:19:10;;;;;;;9.45;2.90;;;;;;;32.54;24.22;100148.80;532593;1088;117623;-66
2021/08/13 09:29:20;;;;;;;3.45;2.50;;;;;;;31.99;25.45;100149.70;531888;1089;116840;-69
2021/08/13 09:39:29;;;;;;;5.13;2.67;;;;;;;31.36;26.18;100132.61;532616;1090;116704;-67
2021/08/13 09:49:37;;;;;;;2.93;2.40;;;;;;;30.81;26.93;100126.75;522059;1090;117029;-63
2021/08/13 10:00:00;;;;;;;5.18;2.78;;;;;;;30.39;27.23;100124.48;532485;1090;116706;-68
2021/08/13 10:10:10;;;;;;;2.70;2.17;;;;;;;29.97;27.42;100124.05;506818;1089;10001522;-58
2021/08/13 10:20:17;;;;;;;2.80;2.60;;;;;;;29.91;28.47;100118.42;520271;1089;117312;-58
2021/08/13 10:30:25;;;;;;;4.40;2.63;;;;;;;29.54;28.32;100107.30;520473;1088;117574;-59
2021/08/13 10:40:32;;;;;;;3.10;2.77;;;;;;;29.58;28.26;100105.82;525050;1088;115992;-58
2021/08/13 10:50:39;;;;;;;4.45;3.10;;;;;;;29.31;28.82;100100.44;523997;1088;116610;-59
2021/08/13 11:01:08;;;;;;;3.55;2.78;;;;;;;28.71;29.53;100092.30;532464;1089;116156;-59
2021/08/13 11:11:15;;;;;;;6.37;4.13;;;;;;;28.24;30.76;100093.88;531760;1089;117426;-59
2021/08/13 11:21:33;;;;;;;3.03;2.68;;;;;;;27.99;31.08;100074.65;532535;1089;116160;-59
2021/08/13 11:31:53;;;;;;;3.33;3.00;;;;;;;27.83;31.58;100070.43;531637;1090;116595;-59
2021/08/13 11:42:06;;;;;;;3.50;3.00;;;;;;;27.66;32.00;100053.75;531305;1088;116824;-59
2021/08/13 11:52:12;;;;;;;4.05;2.85;;;;;;;27.30;32.48;100060.16;520633;1088;116357;-61
2021/08/13 12:02:29;;;;;;;4.43;3.00;;;;;;;27.29;33.08;100056.61;516077;1088;118413;-58
2021/08/13 12:12:36;;;;;;;3.08;2.88;;;;;;;27.33;32.57;100054.36;523140;1088;117049;-58
2021/08/13 12:22:43;;;;;;;5.37;3.40;;;;;;;27.41;32.96;100043.42;519650;1089;118018;-62
2021/08/13 12:32:52;;;;;;;4.50;3.37;;;;;;;27.59;32.86;100037.53;527279;1089;117409;-59
2021/08/13 12:42:59;;;;;;;4.77;3.37;;;;;;;27.96;33.12;100034.59;517580;1088;116481;-59
2021/08/13 12:53:36;;;;;;;3.28;2.98;;;;;;;28.46;32.97;100046.98;514771;1088;116746;-60
2021/08/13 13:04:03;;;;;;;7.10;3.70;;;;;;;28.47;33.85;100029.73;524686;1089;116098;-65
2021/08/13 13:14:09;;;;;;;4.03;3.00;;;;;;;28.19;33.43;100015.36;525645;1088;117384;-64
2021/08/13 13:24:26;;;;;;;7.50;4.07;;;;;;;28.19;33.73;100017.23;523490;1088;116414;-63
2021/08/13 13:34:32;;;;;;;5.37;3.83;;;;;;;28.13;34.04;99999.12;531810;1088;117546;-66
2021/08/13 13:44:39;;;;;;;8.73;4.40;;;;;;;28.05;34.97;99990.20;532441;1089;116557;-60
2021/08/13 13:54:45;;;;;;;4.80;3.50;;;;;;;27.90;34.36;99981.42;532449;1089;116392;-64
2021/08/13 14:04:52;;;;;;;5.53;4.40;;;;;;;28.06;34.86;99974.81;531801;1089;116954;-73
2021/08/13 14:14:59;;;;;;;3.73;3.13;;;;;;;28.18;34.83;99975.91;532528;1088;115882;-73
2021/08/13 14:25:08;;;;;;;10.48;4.13;;;;;;;28.05;34.60;99974.00;532583;1088;116393;-67
2021/08/13 14:35:15;;;;;;;4.00;3.03;;;;;;;28.15;34.60;99954.70;531817;1089;116430;-62
2021/08/13 14:45:22;;;;;;;6.77;3.93;;;;;;;28.13;35.00;99953.23;523535;1089;10112295;-62
2021/08/13 14:55:29;;;;;;;10.80;4.63;;;;;;;28.24;35.14;99931.06;529885;1089;117048;-63
2021/08/13 15:05:38;;;;;;;4.20;3.55;;;;;;;28.11;35.66;99919.19;514327;1090;116562;-62
2021/08/13 15:15:44;;;;;;;4.57;3.93;;;;;;;27.91;36.22;99931.81;522525;1089;116340;-63
2021/08/13 15:25:51;;;;;;;4.13;3.40;;;;;;;27.95;36.04;99933.90;527206;1090;116079;-62
2021/08/13 15:35:59;;;;;;;5.90;3.85;;;;;;;27.98;36.24;99913.78;527911;1090;116743;-63
2021/08/13 15:46:03;;;;;;;;;;;;;;;27.95;36.45;99889.91;532110;1088;116856;-63
2021/08/13 15:56:10;;;;;;;3.60;3.30;;;;;;;27.57;37.02;99893.14;515825;1089;102728;-62
2021/08/13 16:06:18;;;;;;;9.23;3.97;;;;;;;27.23;37.61;99883.03;523399;1088;115937;-64
2021/08/13 16:16:23;;;;;;;;;;;;;;;27.02;38.59;99875.91;516638;1088;116067;-64
2021/08/13 16:26:30;;;;;;;7.38;4.33;;;;;;;26.77;38.49;99880.91;525757;1090;102620;-65
2021/08/13 16:36:37;;;;;;;7.70;4.18;;;;;;;26.55;38.88;99883.70;520384;1090;115784;-63
2021/08/13 16:46:47;;;;;;;6.33;4.40;;;;;;;26.29;39.78;99871.69;521779;1089;116502;-63
2021/08/13 16:56:54;;;;;;;7.97;5.00;;;;;;;25.95;40.85;99874.08;532414;1089;116122;-64
2021/08/13 17:07:05;;;;;;;6.80;4.50;;;;;;;25.63;41.71;99872.73;532581;1088;116171;-63
2021/08/13 17:17:12;;;;;;;11.25;6.38;;;;;;;25.62;42.66;99861.13;531674;1089;116125;-65
2021/08/13 17:27:18;;;;;;;6.30;5.70;;;;;;;25.23;43.14;99856.95;532109;1089;116628;-65
2021/08/13 17:37:26;;;;;;;7.47;5.90;;;;;;;24.86;44.09;99855.02;524151;1089;115739;-66
2021/08/13 17:47:32;;;;;;;;;;;;;;;24.47;45.61;99861.47;532464;1089;115797;-60
2021/08/13 17:57:39;;;;;;;10.80;6.20;;;;;;;24.05;46.38;99869.88;521063;1090;103020;-61
2021/08/13 18:07:46;;;;;;;18.90;8.40;;;;;;;23.58;48.48;99885.09;530578;1089;116521;-61
2021/08/13 18:17:54;;;;;;;15.20;7.83;;;;;;;23.11;50.07;99886.78;519330;1089;116430;-61
2021/08/13 18:28:03;;;;;;;10.38;7.33;;;;;;;22.66;50.51;99881.89;531322;1088;115975;-59
2021/08/13 18:38:10;;;;;;;7.90;7.13;;;;;;;22.32;51.42;99896.28;528173;1088;116485;-60
2021/08/13 18:48:17;;;;;;;11.00;7.13;;;;;;;22.06;51.56;99891.94;532436;1088;116724;-61
2021/08/13 18:58:26;;;;;;;8.35;7.53;;;;;;;21.87;51.90;99897.59;524854;1089;116498;-63
2021/08/13 19:08:32;;;;;;;9.73;7.87;;;;;;;21.65;52.63;99892.69;532420;1089;116947;-62
2021/08/13 19:18:39;;;;;;;10.93;8.70;;;;;;;21.49;53.18;99900.67;532393;1090;116165;-62
2021/08/13 19:28:46;;;;;;;12.10;7.83;;;;;;;21.33;53.79;99891.59;531726;1089;117088;-63
2021/08/13 19:38:52;;;;;;;10.80;8.60;;;;;;;21.10;54.42;99891.34;532545;1090;116725;-61
2021/08/13 19:49:00;;;;;;;11.10;8.50;;;;;;;20.89;54.82;99886.38;530456;1090;116490;-60
2021/08/13 19:59:06;;;;;;;9.90;8.93;;;;;;;20.70;55.88;99878.41;531809;1089;116257;-61
2021/08/13 20:09:13;;;;;;;10.47;8.83;;;;;;;20.54;56.11;99880.98;532396;1088;115832;-61
2021/08/13 20:19:19;;;;;;;10.33;9.23;;;;;;;20.37;56.63;99874.70;532462;1090;116337;-61
2021/08/13 20:29:26;;;;;;;10.00;9.03;;;;;;;20.21;57.13;99878.92;531804;1088;116561;-61
2021/08/13 20:39:33;;;;;;;11.37;8.63;;;;;;;20.06;57.96;99873.30;532550;1088;117591;-64
2021/08/13 20:49:40;;;;;;;10.55;8.70;;;;;;;19.93;58.16;99854.20;530103;1088;116695;-61
2021/08/13 20:59:46;;;;;;;11.70;9.37;;;;;;;19.82;58.54;99847.22;527780;1089;116463;-62
2021/08/13 21:09:52;;;;;;;14.43;8.93;;;;;;;19.72;58.72;99850.80;532513;1089;117820;-62
2021/08/13 21:19:59;;;;;;;8.93;8.00;;;;;;;19.65;59.19;99841.75;530538;1089;116772;-61
2021/08/13 21:30:07;;;;;;;10.20;9.00;;;;;;;19.62;59.94;99850.02;532521;1089;116462;-61
2021/08/13 21:40:15;;;;;;;10.45;8.58;;;;;;;19.59;59.62;99829.88;532521;1088;116292;-63
2021/08/13 21:50:22;;;;;;;8.60;7.80;;;;;;;19.49;60.36;99836.24;530801;1088;116129;-61
2021/08/13 22:00:28;;;;;;;8.93;8.03;;;;;;;19.34;60.47;99823.45;530085;1090;117059;-61
2021/08/13 22:10:35;;;;;;;10.57;8.20;;;;;;;19.22;61.08;99829.97;530878;1088;116426;-62
2021/08/13 22:20:42;;;;;;;10.53;9.60;;;;;;;19.06;61.67;99823.48;532588;1089;116753;-61
2021/08/13 22:30:49;;;;;;;11.63;8.43;;;;;;;18.97;61.89;99819.02;532461;1089;116530;-62
2021/08/13 22:40:56;;;;;;;10.03;8.13;;;;;;;18.89;62.08;99817.09;531488;1089;116262;-60
2021/08/13 22:51:04;;;;;;;10.40;9.43;;;;;;;18.81;62.34;99814.31;529341;1089;117049;-67
2021/08/13 23:01:10;;;;;;;10.33;9.35;;;;;;;18.77;62.61;99808.45;532448;1088;116380;-64
2021/08/13 23:11:17;;;;;;;11.97;9.53;;;;;;;18.68;63.11;99812.83;531571;1088;116852;-64
2021/08/13 23:21:23;;;;;;;10.27;9.20;;;;;;;18.60;63.37;99804.73;532670;1088;116691;-65
2021/08/13 23:31:30;;;;;;;10.43;9.37;;;;;;;18.49;63.69;99806.58;532384;1090;116933;-65
2021/08/13 23:41:38;;;;;;;14.03;9.53;;;;;;;18.45;63.91;99821.16;532177;1089;175978;-64
2021/08/13 23:51:45;;;;;;;;;;;;;;;18.40;64.57;99811.94;532666;1089;116797;-64
